Archival Weather

Al Kharj

Al Kharj, Saudi Arabia (OEKJ)

Report from: Thursday, September 21, 2023 3:00 AM UTC
Current time: Friday, February 23, 2024 7:42 PM UTC

Current weather – Weather history – Daily summaries
Weather forecast

Temperature27.0°C (80.6°F)
Heat index26.6°C (79.8°F)
Dew point6.0°C (42.8°F)
Winds 7 kts (3.6 m/s, 8.1 mph) West (260°)
Clouds Sky clear
Altimeter29.91 in.Hg (1013 mB)
Relative humidity26 %
Density altitude1,531 ft. (467 m)
Remarks Ceiling and visibility OK
Flight conditions Visual Meteorological Conditions
Raw dataOEKJ 210300Z 26007KT CAVOK 27/06 Q1013
An error has occurred. This application may no longer respond until reloaded. Reload 🗙